Terminal Aerodrome Forecast
Issued by NWS

Home | Current Version | Previous Version | Text Only | Print | Product List | Glossary On
Versions: 1 2 3 4 5 6 7 8 9 10 11 12 13 14 15 16 17 18 19 20 21 22 23 24 25 26 27 28 29 30 31 32 33
819
FTUS41 KOKX 252040 AAA
TAFGON
TAF AMD
KGON 252040Z 2521/2618 08010G20KT 2SM BR OVC008
     FM252200 05013KT 2SM BR OVC009
     FM252300 03008KT 1SM BR VCSH OVC007
     FM260200 VRB04KT 1SM BR OVC100
     FM260900 34002KT 2SM BR BKN150
     FM261200 33004KT 4SM BR BKN150
     FM261400 32006KT P6SM SCT250=

USA.gov is the U.S. government's official web portal to all federal, state and local government web resources and services.